createdAt,value
2023-02-01T00:55:31.266Z,24.94
2023-02-01T00:56:32.232Z,4.23
2023-02-01T00:57:32.221Z,4.86
2023-02-01T00:58:32.217Z,4.81
2023-02-01T00:59:32.216Z,4.62
2023-02-01T01:00:32.252Z,4.80
2023-02-01T01:01:32.190Z,3.73
2023-02-01T01:02:32.192Z,5.00
2023-02-01T01:03:32.172Z,4.27
2023-02-01T01:04:32.166Z,4.23
2023-02-01T01:05:32.162Z,4.59
2023-02-01T01:06:32.181Z,4.38
2023-02-01T01:07:32.142Z,3.61
2023-02-01T01:08:32.148Z,4.23
2023-02-01T01:09:32.124Z,4.71
2023-02-01T01:10:32.128Z,3.98
2023-02-01T01:11:32.173Z,4.51
2023-02-01T01:12:32.121Z,3.72
2023-02-01T01:13:32.089Z,3.89
2023-02-01T01:14:32.084Z,4.34
2023-02-01T01:15:32.102Z,3.92
2023-02-01T01:16:32.088Z,3.84
2023-02-01T01:17:32.060Z,4.26
2023-02-01T01:18:32.040Z,4.12
2023-02-01T01:19:32.034Z,3.94
2023-02-01T01:20:32.028Z,4.25
2023-02-01T01:21:32.050Z,4.29
2023-02-01T01:22:32.043Z,4.54
2023-02-01T01:23:31.998Z,4.22
2023-02-01T01:24:31.993Z,4.84
2023-02-01T01:25:31.987Z,4.04
2023-02-01T01:26:32.044Z,3.96
2023-02-01T01:27:31.992Z,3.46
2023-02-01T01:28:31.979Z,4.35
2023-02-01T01:29:31.952Z,3.66
2023-02-01T01:30:31.992Z,3.82
2023-02-01T01:31:32.015Z,4.35
2023-02-01T01:32:31.928Z,3.73
2023-02-01T01:33:31.911Z,3.96
2023-02-01T01:34:31.911Z,4.00
2023-02-01T01:35:31.912Z,4.31
2023-02-01T01:36:31.892Z,4.09
2023-02-01T01:37:31.887Z,4.07
2023-02-01T01:38:31.872Z,4.34
2023-02-01T01:39:31.867Z,4.28
2023-02-01T01:40:31.854Z,3.83
2023-02-01T01:41:31.867Z,4.22
2023-02-01T01:42:31.842Z,4.36
2023-02-01T01:43:31.852Z,4.37
2023-02-01T01:44:31.824Z,4.07
2023-02-01T01:45:31.819Z,4.52
2023-02-01T01:46:31.881Z,3.78
2023-02-01T01:47:31.795Z,4.19
2023-02-01T01:48:31.792Z,3.78
2023-02-01T01:49:31.798Z,4.04
2023-02-01T01:50:31.779Z,4.32
2023-02-01T01:51:31.759Z,3.76
2023-02-01T01:52:31.749Z,4.08
2023-02-01T01:53:31.749Z,4.35
2023-02-01T01:54:31.737Z,3.83
2023-02-01T01:55:31.732Z,4.48
2023-02-01T01:56:31.726Z,4.20
2023-02-01T01:57:31.714Z,3.89
2023-02-01T01:58:31.702Z,3.48
2023-02-01T01:59:31.718Z,4.02
2023-02-01T02:00:31.704Z,4.04
2023-02-01T02:01:31.676Z,3.88
2023-02-01T02:02:31.680Z,4.35
2023-02-01T02:03:31.662Z,4.29
2023-02-01T02:04:31.648Z,4.40
2023-02-01T02:05:31.641Z,3.47
2023-02-01T02:06:31.635Z,3.89
2023-02-01T02:07:31.649Z,4.14
2023-02-01T02:08:31.619Z,3.66
2023-02-01T02:09:31.615Z,3.64
2023-02-01T02:10:31.600Z,3.65
2023-02-01T02:11:31.591Z,4.00
2023-02-01T02:12:31.589Z,3.80
2023-02-01T02:13:31.576Z,3.71
2023-02-01T02:14:31.566Z,3.72
2023-02-01T02:15:31.578Z,4.22
2023-02-01T02:16:31.605Z,4.38
2023-02-01T02:17:31.574Z,4.52
2023-02-01T02:18:31.542Z,3.83
2023-02-01T02:19:31.529Z,3.86
2023-02-01T02:20:31.512Z,3.98
2023-02-01T02:21:31.520Z,4.07
2023-02-01T02:22:31.501Z,3.83
2023-02-01T02:23:31.495Z,4.07
2023-02-01T02:24:30.475Z,3.73
2023-02-01T02:25:31.474Z,3.39
2023-02-01T02:26:31.499Z,3.94
2023-02-01T02:27:31.463Z,4.56
2023-02-01T02:28:31.445Z,4.00
2023-02-01T02:29:31.439Z,3.82
2023-02-01T02:30:31.450Z,3.83
2023-02-01T02:31:31.489Z,3.72
2023-02-01T02:32:31.416Z,4.10
2023-02-01T02:33:31.412Z,3.96
2023-02-01T02:34:31.391Z,4.16
2023-02-01T02:35:31.388Z,4.62
2023-02-01T02:36:31.424Z,3.88
2023-02-01T02:37:31.495Z,3.80
2023-02-01T02:38:31.359Z,3.85
2023-02-01T02:39:31.353Z,3.71
2023-02-01T02:40:31.342Z,4.21
2023-02-01T02:41:31.329Z,4.27
2023-02-01T02:42:31.329Z,3.90
2023-02-01T02:43:31.318Z,4.18
2023-02-01T02:44:31.315Z,4.26
2023-02-01T02:45:31.328Z,3.58
2023-02-01T02:46:31.287Z,4.66
2023-02-01T02:47:31.317Z,3.64
2023-02-01T02:48:31.281Z,3.82
2023-02-01T02:49:31.282Z,3.65
2023-02-01T02:50:31.256Z,4.13
2023-02-01T02:51:31.261Z,3.73
2023-02-01T02:52:31.247Z,4.25
2023-02-01T02:53:31.235Z,4.55
2023-02-01T02:54:31.231Z,4.39
2023-02-01T02:55:31.215Z,3.85
2023-02-01T02:56:31.206Z,3.40
2023-02-01T02:57:31.200Z,3.70
2023-02-01T02:58:31.192Z,4.37
2023-02-01T02:59:31.176Z,4.34
2023-02-01T03:00:31.173Z,4.07
2023-02-01T03:01:31.159Z,4.48
2023-02-01T03:02:31.191Z,3.86
2023-02-01T03:03:31.179Z,3.97
2023-02-01T03:04:31.139Z,4.85
2023-02-01T03:05:31.129Z,4.09
2023-02-01T03:06:31.118Z,4.04
2023-02-01T03:07:31.115Z,4.55
2023-02-01T03:08:31.102Z,3.61
2023-02-01T03:09:31.099Z,4.05
2023-02-01T03:10:31.083Z,4.01
2023-02-01T03:11:31.089Z,4.09
2023-02-01T03:12:31.067Z,3.61
2023-02-01T03:13:31.060Z,4.03
2023-02-01T03:14:31.056Z,4.06
2023-02-01T03:15:31.039Z,4.10
2023-02-01T03:16:31.095Z,4.37
2023-02-01T03:17:31.029Z,3.68
2023-02-01T03:18:31.021Z,3.42
2023-02-01T03:19:31.039Z,3.84
2023-02-01T03:20:30.997Z,3.68
2023-02-01T03:21:30.992Z,4.19
2023-02-01T03:22:30.980Z,4.09
2023-02-01T03:23:30.990Z,3.83
2023-02-01T03:24:30.965Z,4.20
2023-02-01T03:25:30.961Z,4.41
2023-02-01T03:26:30.993Z,4.09
2023-02-01T03:27:30.964Z,3.65
2023-02-01T03:28:30.957Z,4.58
2023-02-01T03:29:30.919Z,3.88
2023-02-01T03:30:30.925Z,4.37
2023-02-01T03:31:30.909Z,3.71
2023-02-01T03:32:30.898Z,3.93
2023-02-01T03:33:30.892Z,3.98
2023-02-01T03:34:30.883Z,3.52
2023-02-01T03:35:30.895Z,4.11
2023-02-01T03:36:30.863Z,3.97
2023-02-01T03:37:30.855Z,4.52
2023-02-01T03:38:30.846Z,4.08
2023-02-01T03:39:30.842Z,4.33
2023-02-01T03:40:30.828Z,4.01
2023-02-01T03:41:30.826Z,3.66
2023-02-01T03:42:30.819Z,4.12
2023-02-01T03:43:30.802Z,3.42
2023-02-01T03:44:30.793Z,3.67
2023-02-01T03:45:30.792Z,3.86
2023-02-01T03:46:30.779Z,3.98
2023-02-01T03:47:30.795Z,4.14
2023-02-01T03:48:30.765Z,3.61
2023-02-01T03:49:30.767Z,4.23
2023-02-01T03:50:30.742Z,3.93
2023-02-01T03:51:30.760Z,4.16
2023-02-01T03:52:30.731Z,4.45
2023-02-01T03:53:30.722Z,3.72
2023-02-01T03:54:30.721Z,3.47
2023-02-01T03:55:30.711Z,4.17
2023-02-01T03:56:30.692Z,3.54
2023-02-01T03:57:30.703Z,3.99
2023-02-01T03:58:30.694Z,4.23
2023-02-01T03:59:30.666Z,3.64
2023-02-01T04:00:30.656Z,4.33
2023-02-01T04:01:30.730Z,3.56
2023-02-01T04:02:30.756Z,4.13
2023-02-01T04:03:30.629Z,3.61
2023-02-01T04:04:30.620Z,3.79
2023-02-01T04:05:30.612Z,4.21
2023-02-01T04:06:30.609Z,4.61
2023-02-01T04:07:30.633Z,4.48
2023-02-01T04:08:30.588Z,3.89
2023-02-01T04:09:30.590Z,4.05
2023-02-01T04:10:30.573Z,4.09
2023-02-01T04:11:30.563Z,4.07
2023-02-01T04:12:30.550Z,4.94
2023-02-01T04:13:30.567Z,4.93
2023-02-01T04:14:30.537Z,5.41
2023-02-01T04:15:30.533Z,6.04
2023-02-01T04:16:30.556Z,5.86
2023-02-01T04:17:30.511Z,5.33
2023-02-01T04:18:30.497Z,5.18
2023-02-01T04:19:30.506Z,6.20
2023-02-01T04:20:30.489Z,5.57
2023-02-01T04:21:30.483Z,5.38
2023-02-01T04:22:30.464Z,5.47
2023-02-01T04:23:30.549Z,5.55
2023-02-01T04:24:30.456Z,4.44
2023-02-01T04:25:30.444Z,5.49
2023-02-01T04:26:30.503Z,4.62
2023-02-01T04:27:30.421Z,4.72
2023-02-01T04:28:30.411Z,5.05
2023-02-01T04:29:30.431Z,4.47
2023-02-01T04:30:30.426Z,5.12
2023-02-01T04:31:30.582Z,5.34
2023-02-01T04:32:30.408Z,5.51
2023-02-01T04:33:30.371Z,5.50
2023-02-01T04:34:30.363Z,4.75
2023-02-01T04:35:30.351Z,5.44
2023-02-01T04:36:30.351Z,6.09
2023-02-01T04:37:30.337Z,4.85
2023-02-01T04:38:30.340Z,6.53
2023-02-01T04:39:30.364Z,5.45
2023-02-01T04:40:30.311Z,5.52
2023-02-01T04:41:30.304Z,5.51
2023-02-01T04:42:30.296Z,6.16
2023-02-01T04:43:30.293Z,5.22
2023-02-01T04:44:30.284Z,5.51
2023-02-01T04:45:30.269Z,5.00
2023-02-01T04:46:30.363Z,5.50
2023-02-01T04:47:30.255Z,4.82
2023-02-01T04:48:30.245Z,4.98
2023-02-01T04:49:30.247Z,5.36
2023-02-01T04:50:30.226Z,5.41
2023-02-01T04:51:30.220Z,5.15
2023-02-01T04:52:30.215Z,5.49
2023-02-01T04:53:30.211Z,5.73
2023-02-01T04:54:30.189Z,5.20
2023-02-01T04:55:30.215Z,5.19
2023-02-01T04:56:30.176Z,5.10
2023-02-01T04:57:30.168Z,5.48
2023-02-01T04:58:30.165Z,5.98
2023-02-01T04:59:30.154Z,5.40
2023-02-01T05:00:30.153Z,5.54
2023-02-01T05:01:30.225Z,5.43
2023-02-01T05:02:30.127Z,5.20
2023-02-01T05:03:30.118Z,5.23
2023-02-01T05:04:30.182Z,5.85
2023-02-01T05:05:30.099Z,4.93
2023-02-01T05:06:30.122Z,6.03
2023-02-01T05:07:30.088Z,5.88
2023-02-01T05:08:30.079Z,5.18
2023-02-01T05:09:30.071Z,5.93
2023-02-01T05:10:30.071Z,5.61
2023-02-01T05:11:30.085Z,5.19
2023-02-01T05:12:30.053Z,5.67
2023-02-01T05:13:30.035Z,5.54
2023-02-01T05:14:30.027Z,5.35
2023-02-01T05:15:30.057Z,5.24
2023-02-01T05:16:30.011Z,5.06
2023-02-01T05:17:30.002Z,5.56
2023-02-01T05:18:29.996Z,5.41
2023-02-01T05:19:29.986Z,4.95
2023-02-01T05:20:29.975Z,5.57
2023-02-01T05:21:29.975Z,5.97
2023-02-01T05:22:29.958Z,5.35
2023-02-01T05:23:29.945Z,5.51
2023-02-01T05:24:29.941Z,5.53
2023-02-01T05:25:29.945Z,5.48
2023-02-01T05:26:30.009Z,5.31
2023-02-01T05:27:29.947Z,5.76
2023-02-01T05:28:29.915Z,5.95
2023-02-01T05:29:29.901Z,5.18
2023-02-01T05:30:29.904Z,4.88
2023-02-01T05:31:30.041Z,4.79
2023-02-01T05:32:29.980Z,6.19
2023-02-01T05:33:29.864Z,4.84
2023-02-01T05:34:29.863Z,5.31
2023-02-01T05:35:29.850Z,5.49
2023-02-01T05:36:29.860Z,4.85
2023-02-01T05:37:29.834Z,5.25
2023-02-01T05:38:29.825Z,5.37
2023-02-01T05:39:29.817Z,5.18
2023-02-01T05:40:29.818Z,5.37
2023-02-01T05:41:29.795Z,4.76
2023-02-01T05:42:29.795Z,5.74
2023-02-01T05:43:29.861Z,5.20
2023-02-01T05:44:29.780Z,5.17
2023-02-01T05:45:29.769Z,5.49
2023-02-01T05:46:29.831Z,4.51
2023-02-01T05:47:29.755Z,4.72
2023-02-01T05:48:29.777Z,4.59
2023-02-01T05:49:29.729Z,4.63
2023-02-01T05:50:29.718Z,5.00
2023-02-01T05:51:29.716Z,5.76
2023-02-01T05:52:29.701Z,5.88
2023-02-01T05:53:29.695Z,4.89
2023-02-01T05:54:29.703Z,5.00
2023-02-01T05:55:29.687Z,5.53
2023-02-01T05:56:29.671Z,5.23
2023-02-01T05:57:29.705Z,4.52
2023-02-01T05:59:29.663Z,5.14
2023-02-01T06:00:29.642Z,5.26
2023-02-01T06:01:29.626Z,5.06
2023-02-01T06:02:29.663Z,4.79
2023-02-01T06:03:29.700Z,4.95
2023-02-01T06:04:29.601Z,4.89
2023-02-01T06:05:29.595Z,5.07
2023-02-01T06:06:30.065Z,5.89
2023-02-01T06:07:29.919Z,5.06
2023-02-01T06:08:29.576Z,4.54
2023-02-01T06:09:29.553Z,4.81
2023-02-01T06:10:29.550Z,4.98
2023-02-01T06:11:33.291Z,4.99
2023-02-01T06:12:29.531Z,5.44
2023-02-01T06:13:29.529Z,4.78
2023-02-01T06:14:29.514Z,4.31
2023-02-01T06:15:29.533Z,5.00
2023-02-01T06:16:29.616Z,4.87
2023-02-01T06:17:29.494Z,4.84
2023-02-01T06:18:29.569Z,4.43
2023-02-01T06:19:29.474Z,4.81
2023-02-01T06:20:29.483Z,5.02
2023-02-01T06:21:29.479Z,4.86
2023-02-01T06:22:29.459Z,4.99
2023-02-01T06:23:29.656Z,5.17
2023-02-01T06:24:29.430Z,4.84
2023-02-01T06:25:29.448Z,4.98
2023-02-01T06:26:29.486Z,4.90
2023-02-01T06:27:29.445Z,5.20
2023-02-01T06:28:29.413Z,4.96
2023-02-01T06:29:29.570Z,5.54
2023-02-01T06:30:29.395Z,4.95
2023-02-01T06:31:29.818Z,4.81
2023-02-01T06:32:29.366Z,5.59
2023-02-01T06:33:29.381Z,5.44
2023-02-01T06:34:29.350Z,5.63
2023-02-01T06:35:29.574Z,4.80
2023-02-01T06:36:29.364Z,5.02
2023-02-01T06:37:29.325Z,4.81
2023-02-01T06:38:29.363Z,4.84
2023-02-01T06:39:29.310Z,4.65
2023-02-01T06:40:29.583Z,4.99
2023-02-01T06:41:29.828Z,5.61
2023-02-01T06:42:29.275Z,4.94
2023-02-01T06:43:29.274Z,4.87
2023-02-01T06:44:29.575Z,4.50
2023-02-01T06:45:29.699Z,5.67
2023-02-01T06:46:29.291Z,5.36
2023-02-01T06:47:29.768Z,5.32
2023-02-01T06:48:29.234Z,5.42
2023-02-01T06:49:29.257Z,4.95
2023-02-01T06:50:29.604Z,5.07
2023-02-01T06:51:29.208Z,4.89
2023-02-01T06:52:29.575Z,5.24
2023-02-01T06:53:29.189Z,5.03
2023-02-01T06:54:29.180Z,4.91
2023-02-01T06:55:29.166Z,5.14
2023-02-01T06:56:29.619Z,6.35
2023-02-01T06:57:29.195Z,6.43
2023-02-01T06:58:29.147Z,7.10
2023-02-01T06:59:29.148Z,6.53
2023-02-01T07:00:29.214Z,7.31
2023-02-01T07:01:29.599Z,7.45
2023-02-01T07:02:29.165Z,6.59
2023-02-01T07:03:29.130Z,6.07
2023-02-01T07:04:29.092Z,6.39
2023-02-01T07:05:29.105Z,5.97
2023-02-01T07:06:29.191Z,6.10
2023-02-01T07:07:29.258Z,6.19
2023-02-01T07:08:29.260Z,6.82
2023-02-01T07:09:29.238Z,6.03
2023-02-01T07:10:29.529Z,5.93
2023-02-01T07:11:29.224Z,5.33
2023-02-01T07:12:29.123Z,5.57
2023-02-01T07:13:29.088Z,5.97
2023-02-01T07:14:29.007Z,6.13
2023-02-01T07:15:29.001Z,5.72
2023-02-01T07:16:29.026Z,6.19
2023-02-01T07:17:28.977Z,5.85
2023-02-01T07:18:29.091Z,5.21
2023-02-01T07:19:28.985Z,5.95
2023-02-01T07:20:29.035Z,5.30
2023-02-01T07:21:28.959Z,5.28
2023-02-01T07:22:28.940Z,6.22
2023-02-01T07:23:29.094Z,5.66
2023-02-01T07:24:29.095Z,5.91
2023-02-01T07:25:28.945Z,5.22
2023-02-01T07:27:28.912Z,5.81
2023-02-01T07:28:28.891Z,5.59
2023-02-01T07:29:29.088Z,5.38
2023-02-01T07:30:29.118Z,5.09
2023-02-01T07:31:28.855Z,6.18
2023-02-01T07:32:28.899Z,5.75
2023-02-01T07:33:28.836Z,5.39
2023-02-01T07:34:28.843Z,5.55
2023-02-01T07:35:29.140Z,5.41
2023-02-01T07:39:28.790Z,5.48
2023-02-01T07:41:28.775Z,5.30
2023-02-01T07:42:28.785Z,4.92
2023-02-01T07:43:28.762Z,4.80
2023-02-01T07:44:29.094Z,5.66
2023-02-01T07:45:28.780Z,5.20
2023-02-01T07:46:28.730Z,5.66
2023-02-01T07:47:28.723Z,5.14
2023-02-01T07:48:28.716Z,4.86
2023-02-01T07:49:29.176Z,5.19
2023-02-01T07:50:28.696Z,5.75
2023-02-01T07:51:28.729Z,5.79
2023-02-01T07:52:28.682Z,5.46
2023-02-01T07:53:28.672Z,5.25
2023-02-01T07:54:28.655Z,5.78
2023-02-01T07:55:29.153Z,6.26
2023-02-01T07:56:28.643Z,5.76
2023-02-01T07:57:28.646Z,5.91
2023-02-01T07:58:28.661Z,5.70
2023-02-01T07:59:28.624Z,6.07
2023-02-01T08:00:28.609Z,5.80
2023-02-01T08:01:28.675Z,6.05
2023-02-01T08:02:28.629Z,5.81
2023-02-01T08:03:28.613Z,5.69
2023-02-01T08:04:28.569Z,6.42
2023-02-01T08:05:28.602Z,5.89
2023-02-01T08:06:28.556Z,5.91
2023-02-01T08:07:28.577Z,6.24
2023-02-01T08:08:28.545Z,6.20
2023-02-01T08:09:28.529Z,5.98
2023-02-01T08:10:28.601Z,6.81
2023-02-01T08:11:28.512Z,6.05
2023-02-01T08:12:28.504Z,6.01
2023-02-01T08:13:28.508Z,6.13
2023-02-01T08:14:28.497Z,5.58
2023-02-01T08:15:28.642Z,6.34
2023-02-01T08:16:28.515Z,5.90
2023-02-01T08:17:28.614Z,6.66
2023-02-01T08:18:28.458Z,5.83
2023-02-01T08:19:28.451Z,6.14
2023-02-01T08:20:28.498Z,5.90
2023-02-01T08:21:28.635Z,5.94
2023-02-01T08:22:28.681Z,6.14
2023-02-01T08:23:28.435Z,5.66
2023-02-01T08:24:28.401Z,6.10
2023-02-01T08:25:28.392Z,5.67
2023-02-01T08:26:28.613Z,5.85
2023-02-01T08:27:28.451Z,5.70
2023-02-01T08:28:28.608Z,6.30
2023-02-01T08:29:28.367Z,5.93
2023-02-01T08:30:28.353Z,5.85
2023-02-01T08:31:28.413Z,6.02
2023-02-01T08:32:28.336Z,5.43
2023-02-01T08:33:28.610Z,6.14
2023-02-01T08:34:28.321Z,5.29
2023-02-01T08:35:42.468Z,5.95
2023-02-01T08:36:28.304Z,5.50
2023-02-01T08:38:28.626Z,6.44
2023-02-01T08:40:28.268Z,6.34
2023-02-01T08:41:28.271Z,5.91
2023-02-01T08:42:28.250Z,5.84
2023-02-01T08:43:28.619Z,6.62
2023-02-01T08:44:28.260Z,6.35
2023-02-01T08:45:28.224Z,6.04
2023-02-01T08:46:28.304Z,5.75
2023-02-01T08:47:28.226Z,6.17
2023-02-01T08:48:28.636Z,5.25
2023-02-01T08:49:28.186Z,6.34
2023-02-01T08:50:28.357Z,5.62
2023-02-01T08:51:28.172Z,6.48
2023-02-01T08:52:28.167Z,5.90
2023-02-01T08:53:28.619Z,5.30
2023-02-01T08:55:28.648Z,5.83
2023-02-01T08:56:28.203Z,5.74
2023-02-01T08:57:28.126Z,6.43
2023-02-01T08:58:28.109Z,5.60
2023-02-01T08:59:30.292Z,6.11
2023-02-01T09:00:28.123Z,6.45
2023-02-01T09:01:28.105Z,6.43
2023-02-01T09:02:28.080Z,6.77
2023-02-01T09:03:28.068Z,6.12
2023-02-01T09:04:28.127Z,6.32
2023-02-01T09:05:35.021Z,6.37
2023-02-01T09:06:28.055Z,6.80
2023-02-01T09:07:28.034Z,5.80
2023-02-01T09:08:28.138Z,6.50
2023-02-01T09:09:28.020Z,6.72
2023-02-01T09:10:35.048Z,6.18
2023-02-01T09:11:28.081Z,6.70
2023-02-01T09:12:27.993Z,5.69
2023-02-01T09:13:27.996Z,6.59
2023-02-01T09:14:27.972Z,6.54
2023-02-01T09:15:28.008Z,6.37
2023-02-01T09:18:26.945Z,5.70
2023-02-01T09:19:28.138Z,6.20
2023-02-01T09:20:27.936Z,5.19
2023-02-01T09:21:28.133Z,5.42
2023-02-01T09:22:27.960Z,6.96
2023-02-01T09:23:27.905Z,6.65
2023-02-01T09:24:27.890Z,6.35
2023-02-01T09:25:28.132Z,5.99
2023-02-01T09:26:32.619Z,6.24
2023-02-01T09:27:28.157Z,6.60
2023-02-01T09:28:27.871Z,6.50
2023-02-01T09:29:28.127Z,5.59
2023-02-01T09:30:30.329Z,6.43
2023-02-01T09:31:28.171Z,6.17
2023-02-01T09:32:27.959Z,7.42
2023-02-01T09:33:27.816Z,7.33
2023-02-01T09:34:27.811Z,7.22
2023-02-01T09:35:27.853Z,8.06
2023-02-01T09:36:30.074Z,7.25
2023-02-01T09:37:27.783Z,7.11
2023-02-01T09:38:27.779Z,7.24
2023-02-01T09:39:28.135Z,7.49
2023-02-01T09:40:27.955Z,6.59
2023-02-01T09:41:27.747Z,7.26
2023-02-01T09:42:30.166Z,7.57
2023-02-01T09:43:27.783Z,6.61
2023-02-01T09:44:35.559Z,7.11
2023-02-01T09:45:28.233Z,6.55
2023-02-01T09:46:27.727Z,7.62
2023-02-01T09:47:27.705Z,7.77
2023-02-01T09:48:29.471Z,7.46
2023-02-01T09:49:28.142Z,7.15
2023-02-01T09:50:27.740Z,7.11
2023-02-01T09:51:27.655Z,7.66
2023-02-01T09:52:27.677Z,7.17
2023-02-01T09:53:27.670Z,8.16
2023-02-01T09:54:29.990Z,7.38
2023-02-01T09:55:28.183Z,6.98
2023-02-01T09:56:27.620Z,7.45
2023-02-01T09:57:27.627Z,6.96
2023-02-01T09:58:27.626Z,7.21
2023-02-01T09:59:27.675Z,7.18
2023-02-01T10:00:27.810Z,7.69
2023-02-01T10:01:27.731Z,6.92
2023-02-01T10:02:26.561Z,6.97
2023-02-01T10:03:27.645Z,7.14
2023-02-01T10:04:27.549Z,7.05
2023-02-01T10:05:27.952Z,7.16
2023-02-01T10:06:29.452Z,7.43
2023-02-01T10:07:27.652Z,7.16
2023-02-01T10:08:27.506Z,7.35
2023-02-01T10:09:27.523Z,7.24
2023-02-01T10:10:27.628Z,7.26
2023-02-01T10:11:27.495Z,6.99
2023-02-01T10:12:29.044Z,6.80
2023-02-01T10:13:27.643Z,6.96
2023-02-01T10:14:27.454Z,6.95
2023-02-01T10:15:27.777Z,6.92
2023-02-01T10:16:27.992Z,7.01
2023-02-01T10:17:27.432Z,6.58
2023-02-01T10:18:27.430Z,6.64
2023-02-01T10:19:27.424Z,6.81
2023-02-01T10:20:27.860Z,6.81
2023-02-01T10:21:27.431Z,6.94
2023-02-01T10:22:46.371Z,7.00
2023-02-01T10:23:34.335Z,7.31
2023-02-01T10:24:28.312Z,6.93
2023-02-01T10:25:28.123Z,7.28
2023-02-01T10:26:27.388Z,7.14
2023-02-01T10:27:27.690Z,6.66
2023-02-01T10:28:27.661Z,7.21
2023-02-01T10:29:27.325Z,7.86
2023-02-01T10:31:27.450Z,8.17
2023-02-01T10:32:27.332Z,7.99
2023-02-01T10:33:27.668Z,8.99
2023-02-01T10:34:27.294Z,8.66
2023-02-01T10:35:27.279Z,7.65
2023-02-01T10:36:27.363Z,8.07
2023-02-01T10:37:27.263Z,8.22
2023-02-01T10:38:27.655Z,9.31
2023-02-01T10:39:27.261Z,9.03
2023-02-01T10:40:27.665Z,10.05
2023-02-01T10:41:27.224Z,9.60
2023-02-01T10:42:27.227Z,10.04
2023-02-01T10:43:27.210Z,10.10
2023-02-01T10:44:27.272Z,9.85
2023-02-01T10:45:27.685Z,9.17
2023-02-01T10:46:27.296Z,9.22
2023-02-01T10:47:27.174Z,8.55
2023-02-01T10:48:27.367Z,8.05
2023-02-01T10:49:27.148Z,8.86
2023-02-01T10:50:27.148Z,8.86
2023-02-01T10:51:27.166Z,7.89
2023-02-01T10:52:27.129Z,7.70
2023-02-01T10:53:27.116Z,8.27
2023-02-01T10:54:27.249Z,7.57
2023-02-01T10:55:27.098Z,8.11
2023-02-01T10:56:27.092Z,7.97
2023-02-01T10:57:27.117Z,7.49
2023-02-01T10:58:27.072Z,8.83
2023-02-01T10:59:27.162Z,7.81
2023-02-01T11:00:27.164Z,8.57
2023-02-01T11:01:27.064Z,8.10
2023-02-01T11:02:27.083Z,8.18
2023-02-01T11:03:27.049Z,8.44
2023-02-01T11:04:27.029Z,8.20
2023-02-01T11:05:27.169Z,7.61
2023-02-01T11:06:27.024Z,7.79
2023-02-01T11:07:27.023Z,7.34
2023-02-01T11:08:26.994Z,7.00
2023-02-01T11:09:27.170Z,7.93
2023-02-01T11:10:26.975Z,6.93
2023-02-01T11:11:26.961Z,8.01
2023-02-01T11:12:26.946Z,7.57
2023-02-01T11:13:26.943Z,7.37
2023-02-01T11:14:27.164Z,6.91
2023-02-01T11:15:27.298Z,7.49
2023-02-01T11:16:26.975Z,7.79
2023-02-01T11:17:26.905Z,7.09
2023-02-01T11:18:26.950Z,7.22
2023-02-01T11:19:27.168Z,6.58
2023-02-01T11:20:26.893Z,7.05
2023-02-01T11:21:26.869Z,7.94
2023-02-01T11:22:26.870Z,6.94
2023-02-01T11:23:26.852Z,7.06
2023-02-01T11:24:27.177Z,7.18
2023-02-01T11:25:27.179Z,6.87
2023-02-01T11:26:26.880Z,7.75
2023-02-01T11:27:28.134Z,7.39
2023-02-01T11:28:26.824Z,6.81
2023-02-01T11:29:26.812Z,7.01
2023-02-01T11:30:26.821Z,7.49
2023-02-01T11:31:27.201Z,6.48
2023-02-01T11:32:26.768Z,7.27
2023-02-01T11:33:27.173Z,7.44
2023-02-01T11:34:26.781Z,7.48
2023-02-01T11:35:26.750Z,7.43
2023-02-01T11:36:26.738Z,7.76
2023-02-01T11:37:26.731Z,6.19
2023-02-01T11:38:27.282Z,7.57
2023-02-01T11:39:26.739Z,7.00
2023-02-01T11:40:26.702Z,6.78
2023-02-01T11:41:26.697Z,7.40
2023-02-01T11:42:26.688Z,6.88
2023-02-01T11:43:27.201Z,5.85
2023-02-01T11:44:26.691Z,7.12
2023-02-01T11:45:26.653Z,6.20
2023-02-01T11:46:26.702Z,7.87
2023-02-01T11:47:26.683Z,7.37
2023-02-01T11:48:27.517Z,6.60
2023-02-01T11:49:26.638Z,6.93
2023-02-01T11:50:26.644Z,6.77
2023-02-01T11:51:26.712Z,6.35
2023-02-01T11:52:26.666Z,6.50
2023-02-01T11:53:26.595Z,6.57
2023-02-01T11:54:26.580Z,6.97
2023-02-01T11:55:26.569Z,6.91
2023-02-01T11:56:26.687Z,6.27
2023-02-01T11:57:26.549Z,7.11
2023-02-01T11:58:26.544Z,7.23
2023-02-01T11:59:26.542Z,6.50
2023-02-01T12:00:26.524Z,6.17
2023-02-01T12:01:26.516Z,6.75
2023-02-01T12:02:26.509Z,6.00
2023-02-01T12:03:26.710Z,6.55
2023-02-01T12:04:26.499Z,6.48
2023-02-01T12:05:26.485Z,7.42
2023-02-01T12:06:26.525Z,6.12
2023-02-01T12:07:26.458Z,6.18
2023-02-01T12:08:26.455Z,6.18
2023-02-01T12:09:26.452Z,5.96
2023-02-01T12:10:26.537Z,6.16
2023-02-01T12:11:26.687Z,6.53
2023-02-01T12:12:26.419Z,6.88
2023-02-01T12:13:26.414Z,6.11
2023-02-01T12:14:26.398Z,6.40
2023-02-01T12:15:26.390Z,6.36
2023-02-01T12:16:26.742Z,7.13
2023-02-01T12:17:26.369Z,6.15
2023-02-01T12:18:27.187Z,10.34
2023-02-01T12:19:26.357Z,7.92
2023-02-01T12:20:27.100Z,8.80
2023-02-01T12:21:26.693Z,10.48
2023-02-01T12:22:26.359Z,9.71
2023-02-01T12:23:26.318Z,9.80
2023-02-01T12:24:26.305Z,10.14
2023-02-01T12:25:26.653Z,8.59
2023-02-01T12:26:26.312Z,9.25
2023-02-01T12:27:26.285Z,9.83
2023-02-01T12:28:26.265Z,8.48
2023-02-01T12:29:26.262Z,8.98
2023-02-01T12:30:26.525Z,9.50
2023-02-01T12:31:26.329Z,9.90
2023-02-01T12:32:26.238Z,9.43
2023-02-01T12:33:26.229Z,9.19
2023-02-01T12:34:26.704Z,9.29
2023-02-01T12:35:26.205Z,8.80
2023-02-01T12:36:26.199Z,9.02
2023-02-01T12:37:26.189Z,8.32
2023-02-01T12:38:26.201Z,8.75
2023-02-01T12:39:26.171Z,8.46
2023-02-01T12:40:26.386Z,9.51
2023-02-01T12:41:26.158Z,8.12
2023-02-01T12:42:26.149Z,8.96
2023-02-01T12:43:26.196Z,9.06
2023-02-01T12:44:26.141Z,8.07
2023-02-01T12:45:26.247Z,8.42
2023-02-01T12:46:26.118Z,9.28
2023-02-01T12:47:26.098Z,8.68
2023-02-01T12:48:26.091Z,9.21
2023-02-01T12:49:26.092Z,9.99
2023-02-01T12:50:26.467Z,8.84
2023-02-01T12:51:26.075Z,8.77
2023-02-01T12:52:26.204Z,8.27
2023-02-01T12:53:26.064Z,8.97
2023-02-01T12:54:26.067Z,8.88
2023-02-01T12:55:26.148Z,9.22
2023-02-01T12:56:26.027Z,8.44
2023-02-01T12:57:26.040Z,8.98
2023-02-01T12:58:26.006Z,8.71
2023-02-01T12:59:25.991Z,8.72
2023-02-01T13:00:26.390Z,8.66
2023-02-01T13:01:26.000Z,8.33
2023-02-01T13:02:26.267Z,8.92
2023-02-01T13:03:25.962Z,9.12
2023-02-01T13:04:25.963Z,8.28
2023-02-01T13:05:25.940Z,8.71
2023-02-01T13:06:25.929Z,8.51
2023-02-01T13:07:25.925Z,8.33
2023-02-01T13:08:25.978Z,8.33
2023-02-01T13:09:25.902Z,8.04
2023-02-01T13:10:26.125Z,9.14
2023-02-01T13:11:25.883Z,8.03
2023-02-01T13:12:26.207Z,8.55
2023-02-01T13:13:25.862Z,8.71
2023-02-01T13:14:25.856Z,9.70
2023-02-01T13:15:25.848Z,8.94
2023-02-01T13:16:25.864Z,8.22
2023-02-01T13:17:25.853Z,7.17
2023-02-01T13:18:25.829Z,9.28
2023-02-01T13:19:25.810Z,9.11
2023-02-01T13:20:26.266Z,8.45
2023-02-01T13:21:25.793Z,8.32
2023-02-01T13:22:25.789Z,8.41
2023-02-01T13:23:25.795Z,8.30
2023-02-01T13:24:25.767Z,8.39
2023-02-01T13:25:26.408Z,8.05
2023-02-01T13:26:25.825Z,8.15
2023-02-01T13:27:25.748Z,7.96
2023-02-01T13:28:25.735Z,8.83
2023-02-01T13:29:26.868Z,7.74
2023-02-01T13:30:25.800Z,8.63
2023-02-01T13:31:25.882Z,7.50
2023-02-01T13:33:50.558Z,8.07
2023-02-01T13:33:54.498Z,7.88
2023-02-01T13:34:25.690Z,8.76
2023-02-01T13:35:26.003Z,8.18
2023-02-01T13:36:25.662Z,8.18
2023-02-01T13:37:25.656Z,7.80
2023-02-01T13:38:25.639Z,8.16
2023-02-01T13:39:25.636Z,7.33
2023-02-01T13:40:25.619Z,7.32
2023-02-01T13:41:25.611Z,7.16
2023-02-01T13:42:25.628Z,7.52
2023-02-01T13:43:25.720Z,7.57
2023-02-01T13:44:25.588Z,7.73
2023-02-01T13:45:26.251Z,5.50
2023-02-01T13:46:25.591Z,5.66
2023-02-01T13:47:25.561Z,5.10
2023-02-01T13:48:25.562Z,5.18
2023-02-01T13:49:25.581Z,6.42
2023-02-01T13:50:25.528Z,5.41
2023-02-01T13:51:25.525Z,4.71
2023-02-01T13:52:25.531Z,4.61
2023-02-01T13:53:25.728Z,4.51
2023-02-01T13:54:25.500Z,4.41
2023-02-01T13:55:25.921Z,4.44
2023-02-01T13:56:25.504Z,4.29
2023-02-01T13:57:25.476Z,4.79
2023-02-01T13:58:25.755Z,3.93
2023-02-01T13:59:25.459Z,3.57
2023-02-01T14:00:25.480Z,4.10
2023-02-01T14:01:25.501Z,4.59
2023-02-01T14:02:25.427Z,3.52
2023-02-01T14:03:25.723Z,3.92
2023-02-01T14:04:25.549Z,4.25
2023-02-01T14:05:26.209Z,3.64
2023-02-01T14:06:25.401Z,4.51
2023-02-01T14:07:26.223Z,5.23
2023-02-01T14:08:25.391Z,4.22
2023-02-01T14:09:25.411Z,4.18
2023-02-01T14:10:25.732Z,4.68
2023-02-01T14:11:25.391Z,4.73
2023-02-01T14:12:25.369Z,4.34
2023-02-01T14:13:25.367Z,3.51
2023-02-01T14:14:25.395Z,3.85
2023-02-01T14:15:25.923Z,4.23
2023-02-01T14:16:25.308Z,4.61
2023-02-01T14:17:25.355Z,4.39
2023-02-01T14:18:25.729Z,3.84
2023-02-01T14:19:25.284Z,4.21
2023-02-01T14:20:25.917Z,4.51
2023-02-01T14:21:25.395Z,4.73
2023-02-01T14:22:25.467Z,5.11
2023-02-01T14:23:25.403Z,4.16
2023-02-01T14:24:25.364Z,4.51
2023-02-01T14:25:25.797Z,4.78